sensor_id;sensor_type;location;lat;lon;timestamp;temperature;humidity
8565;DHT22;4320;51.498;6.556;2024-01-06T00:01:21;8.70;99.90
8565;DHT22;4320;51.498;6.556;2024-01-06T00:03:47;8.70;99.90
8565;DHT22;4320;51.498;6.556;2024-01-06T00:06:16;8.70;99.90
8565;DHT22;4320;51.498;6.556;2024-01-06T00:08:41;8.70;99.90
8565;DHT22;4320;51.498;6.556;2024-01-06T00:11:07;8.70;99.90
8565;DHT22;4320;51.498;6.556;2024-01-06T00:13:33;8.70;99.90
8565;DHT22;4320;51.498;6.556;2024-01-06T00:16:00;8.60;99.90
8565;DHT22;4320;51.498;6.556;2024-01-06T00:18:25;8.60;99.90
8565;DHT22;4320;51.498;6.556;2024-01-06T00:20:51;8.80;99.90
8565;DHT22;4320;51.498;6.556;2024-01-06T00:23:17;8.80;99.90
8565;DHT22;4320;51.498;6.556;2024-01-06T00:25:42;8.80;99.90
8565;DHT22;4320;51.498;6.556;2024-01-06T00:28:08;8.80;99.90
8565;DHT22;4320;51.498;6.556;2024-01-06T00:30:33;8.70;99.90
8565;DHT22;4320;51.498;6.556;2024-01-06T00:32:59;8.70;99.90
8565;DHT22;4320;51.498;6.556;2024-01-06T00:35:25;8.70;99.90
8565;DHT22;4320;51.498;6.556;2024-01-06T00:37:50;8.70;99.90
8565;DHT22;4320;51.498;6.556;2024-01-06T00:40:16;8.60;99.90
8565;DHT22;4320;51.498;6.556;2024-01-06T00:42:41;8.60;99.90
8565;DHT22;4320;51.498;6.556;2024-01-06T00:45:07;8.50;99.90
8565;DHT22;4320;51.498;6.556;2024-01-06T00:47:33;8.40;99.90
8565;DHT22;4320;51.498;6.556;2024-01-06T00:49:59;8.50;99.90
8565;DHT22;4320;51.498;6.556;2024-01-06T00:52:24;8.50;99.90
8565;DHT22;4320;51.498;6.556;2024-01-06T00:54:50;8.50;99.90
8565;DHT22;4320;51.498;6.556;2024-01-06T00:57:15;8.50;99.90
8565;DHT22;4320;51.498;6.556;2024-01-06T00:59:41;8.50;99.90
8565;DHT22;4320;51.498;6.556;2024-01-06T01:02:07;8.50;99.90
8565;DHT22;4320;51.498;6.556;2024-01-06T01:04:32;8.50;99.90
8565;DHT22;4320;51.498;6.556;2024-01-06T01:06:58;8.50;99.90
8565;DHT22;4320;51.498;6.556;2024-01-06T01:09:24;8.50;99.90
8565;DHT22;4320;51.498;6.556;2024-01-06T01:11:49;8.50;99.90
8565;DHT22;4320;51.498;6.556;2024-01-06T01:14:15;8.60;99.90
8565;DHT22;4320;51.498;6.556;2024-01-06T01:16:40;8.60;99.90
8565;DHT22;4320;51.498;6.556;2024-01-06T01:19:06;8.60;99.90
8565;DHT22;4320;51.498;6.556;2024-01-06T01:21:31;8.60;99.90
8565;DHT22;4320;51.498;6.556;2024-01-06T01:23:57;8.60;99.90
8565;DHT22;4320;51.498;6.556;2024-01-06T01:26:23;8.60;99.90
8565;DHT22;4320;51.498;6.556;2024-01-06T01:28:48;8.60;99.90
8565;DHT22;4320;51.498;6.556;2024-01-06T01:31:14;8.70;99.90
8565;DHT22;4320;51.498;6.556;2024-01-06T01:33:39;8.70;99.90
8565;DHT22;4320;51.498;6.556;2024-01-06T01:36:05;8.50;99.90
8565;DHT22;4320;51.498;6.556;2024-01-06T01:38:31;8.60;99.90
8565;DHT22;4320;51.498;6.556;2024-01-06T01:40:56;8.60;99.90
8565;DHT22;4320;51.498;6.556;2024-01-06T01:43:22;8.70;99.90
8565;DHT22;4320;51.498;6.556;2024-01-06T01:45:50;8.50;99.90
8565;DHT22;4320;51.498;6.556;2024-01-06T01:48:19;8.50;99.90
8565;DHT22;4320;51.498;6.556;2024-01-06T01:50:45;8.60;99.90
8565;DHT22;4320;51.498;6.556;2024-01-06T01:53:12;8.60;99.90
8565;DHT22;4320;51.498;6.556;2024-01-06T01:55:38;8.70;99.90
8565;DHT22;4320;51.498;6.556;2024-01-06T01:58:05;8.60;99.90
8565;DHT22;4320;51.498;6.556;2024-01-06T02:00:31;8.70;99.90
8565;DHT22;4320;51.498;6.556;2024-01-06T02:02:58;8.60;99.90
8565;DHT22;4320;51.498;6.556;2024-01-06T02:05:24;8.60;99.90
8565;DHT22;4320;51.498;6.556;2024-01-06T02:07:50;8.60;99.90
8565;DHT22;4320;51.498;6.556;2024-01-06T02:10:17;8.70;99.90
8565;DHT22;4320;51.498;6.556;2024-01-06T02:12:43;8.70;99.90
8565;DHT22;4320;51.498;6.556;2024-01-06T02:15:08;8.60;99.90
8565;DHT22;4320;51.498;6.556;2024-01-06T02:17:34;8.40;99.90
8565;DHT22;4320;51.498;6.556;2024-01-06T02:20:00;8.00;99.90
8565;DHT22;4320;51.498;6.556;2024-01-06T02:22:25;7.80;99.90
8565;DHT22;4320;51.498;6.556;2024-01-06T02:24:51;7.70;99.90
8565;DHT22;4320;51.498;6.556;2024-01-06T02:27:16;7.60;99.90
8565;DHT22;4320;51.498;6.556;2024-01-06T02:29:42;7.60;99.90
8565;DHT22;4320;51.498;6.556;2024-01-06T02:32:07;7.50;99.90
8565;DHT22;4320;51.498;6.556;2024-01-06T02:34:33;7.60;99.90
8565;DHT22;4320;51.498;6.556;2024-01-06T02:37:00;7.70;99.90
8565;DHT22;4320;51.498;6.556;2024-01-06T02:39:25;7.70;99.90
8565;DHT22;4320;51.498;6.556;2024-01-06T02:41:51;7.70;99.90
8565;DHT22;4320;51.498;6.556;2024-01-06T02:44:16;7.70;99.90
8565;DHT22;4320;51.498;6.556;2024-01-06T02:46:42;7.50;99.90
8565;DHT22;4320;51.498;6.556;2024-01-06T02:49:08;7.30;99.90
8565;DHT22;4320;51.498;6.556;2024-01-06T02:51:34;7.40;99.90
8565;DHT22;4320;51.498;6.556;2024-01-06T02:53:59;7.30;99.90
8565;DHT22;4320;51.498;6.556;2024-01-06T02:56:25;7.30;99.90
8565;DHT22;4320;51.498;6.556;2024-01-06T02:58:50;7.20;99.90
8565;DHT22;4320;51.498;6.556;2024-01-06T03:01:17;7.20;99.90
8565;DHT22;4320;51.498;6.556;2024-01-06T03:03:43;7.20;99.90
8565;DHT22;4320;51.498;6.556;2024-01-06T03:06:08;7.20;99.90
8565;DHT22;4320;51.498;6.556;2024-01-06T03:08:34;7.10;99.90
8565;DHT22;4320;51.498;6.556;2024-01-06T03:11:00;7.30;99.90
8565;DHT22;4320;51.498;6.556;2024-01-06T03:13:26;7.30;99.90
8565;DHT22;4320;51.498;6.556;2024-01-06T03:15:52;7.30;99.90
8565;DHT22;4320;51.498;6.556;2024-01-06T03:18:17;7.40;99.90
8565;DHT22;4320;51.498;6.556;2024-01-06T03:20:43;7.00;99.90
8565;DHT22;4320;51.498;6.556;2024-01-06T03:23:08;7.00;99.90
8565;DHT22;4320;51.498;6.556;2024-01-06T03:25:34;7.00;99.90
8565;DHT22;4320;51.498;6.556;2024-01-06T03:27:59;7.10;99.90
8565;DHT22;4320;51.498;6.556;2024-01-06T03:30:25;7.30;99.90
8565;DHT22;4320;51.498;6.556;2024-01-06T03:32:51;7.10;99.90
8565;DHT22;4320;51.498;6.556;2024-01-06T03:35:16;7.10;99.90
8565;DHT22;4320;51.498;6.556;2024-01-06T03:37:42;7.10;99.90
8565;DHT22;4320;51.498;6.556;2024-01-06T03:40:08;7.00;99.90
8565;DHT22;4320;51.498;6.556;2024-01-06T03:42:34;7.20;99.90
8565;DHT22;4320;51.498;6.556;2024-01-06T03:45:02;7.00;99.90
8565;DHT22;4320;51.498;6.556;2024-01-06T03:47:27;7.00;99.90
8565;DHT22;4320;51.498;6.556;2024-01-06T03:49:53;7.00;99.90
8565;DHT22;4320;51.498;6.556;2024-01-06T03:52:19;7.10;99.90
8565;DHT22;4320;51.498;6.556;2024-01-06T03:54:45;7.10;99.90
8565;DHT22;4320;51.498;6.556;2024-01-06T03:57:10;7.20;99.90
8565;DHT22;4320;51.498;6.556;2024-01-06T03:59:36;7.10;99.90
8565;DHT22;4320;51.498;6.556;2024-01-06T04:02:01;7.20;99.90
8565;DHT22;4320;51.498;6.556;2024-01-06T04:04:27;7.20;99.90
8565;DHT22;4320;51.498;6.556;2024-01-06T04:06:53;7.10;99.90
8565;DHT22;4320;51.498;6.556;2024-01-06T04:09:18;7.10;99.90
8565;DHT22;4320;51.498;6.556;2024-01-06T04:11:44;7.10;99.90
8565;DHT22;4320;51.498;6.556;2024-01-06T04:14:09;7.00;99.90
8565;DHT22;4320;51.498;6.556;2024-01-06T04:16:35;6.90;99.90
8565;DHT22;4320;51.498;6.556;2024-01-06T04:19:00;6.90;99.90
8565;DHT22;4320;51.498;6.556;2024-01-06T04:21:26;6.90;99.90
8565;DHT22;4320;51.498;6.556;2024-01-06T04:23:52;6.90;99.90
8565;DHT22;4320;51.498;6.556;2024-01-06T04:26:17;7.00;99.90
8565;DHT22;4320;51.498;6.556;2024-01-06T04:28:43;7.00;99.90
8565;DHT22;4320;51.498;6.556;2024-01-06T04:31:08;7.00;99.90
8565;DHT22;4320;51.498;6.556;2024-01-06T04:33:34;6.90;99.90
8565;DHT22;4320;51.498;6.556;2024-01-06T04:36:01;6.90;99.90
8565;DHT22;4320;51.498;6.556;2024-01-06T04:38:27;7.00;99.90
8565;DHT22;4320;51.498;6.556;2024-01-06T04:40:53;7.10;99.90
8565;DHT22;4320;51.498;6.556;2024-01-06T04:43:18;7.20;99.90
8565;DHT22;4320;51.498;6.556;2024-01-06T04:45:44;7.20;99.90
8565;DHT22;4320;51.498;6.556;2024-01-06T04:48:09;7.10;99.90
8565;DHT22;4320;51.498;6.556;2024-01-06T04:50:35;7.20;99.90
8565;DHT22;4320;51.498;6.556;2024-01-06T04:53:01;7.00;99.90
8565;DHT22;4320;51.498;6.556;2024-01-06T04:55:26;7.10;99.90
8565;DHT22;4320;51.498;6.556;2024-01-06T04:57:52;7.30;99.90
8565;DHT22;4320;51.498;6.556;2024-01-06T05:00:17;7.20;99.90
8565;DHT22;4320;51.498;6.556;2024-01-06T05:02:43;7.10;99.90
8565;DHT22;4320;51.498;6.556;2024-01-06T05:05:09;7.20;99.90
8565;DHT22;4320;51.498;6.556;2024-01-06T05:07:35;7.40;99.90
8565;DHT22;4320;51.498;6.556;2024-01-06T05:10:00;7.50;99.90
8565;DHT22;4320;51.498;6.556;2024-01-06T05:12:26;7.30;99.90
8565;DHT22;4320;51.498;6.556;2024-01-06T05:14:52;7.40;99.90
8565;DHT22;4320;51.498;6.556;2024-01-06T05:17:17;7.50;99.90
8565;DHT22;4320;51.498;6.556;2024-01-06T05:19:43;7.30;99.90
8565;DHT22;4320;51.498;6.556;2024-01-06T05:22:08;7.30;99.90
8565;DHT22;4320;51.498;6.556;2024-01-06T05:24:34;7.20;99.90
8565;DHT22;4320;51.498;6.556;2024-01-06T05:26:59;7.00;99.90
8565;DHT22;4320;51.498;6.556;2024-01-06T05:29:25;6.90;99.90
8565;DHT22;4320;51.498;6.556;2024-01-06T05:31:51;6.80;99.90
8565;DHT22;4320;51.498;6.556;2024-01-06T05:34:17;6.90;99.90
8565;DHT22;4320;51.498;6.556;2024-01-06T05:36:43;6.80;99.90
8565;DHT22;4320;51.498;6.556;2024-01-06T05:39:08;6.70;99.90
8565;DHT22;4320;51.498;6.556;2024-01-06T05:41:38;6.60;99.90
8565;DHT22;4320;51.498;6.556;2024-01-06T05:44:04;6.50;99.90
8565;DHT22;4320;51.498;6.556;2024-01-06T05:46:30;6.50;99.90
8565;DHT22;4320;51.498;6.556;2024-01-06T05:48:56;6.40;99.90
8565;DHT22;4320;51.498;6.556;2024-01-06T05:51:22;6.40;99.90
8565;DHT22;4320;51.498;6.556;2024-01-06T05:53:48;6.40;99.90
8565;DHT22;4320;51.498;6.556;2024-01-06T05:56:24;6.40;99.90
8565;DHT22;4320;51.498;6.556;2024-01-06T05:58:51;6.30;99.90
8565;DHT22;4320;51.498;6.556;2024-01-06T06:01:17;6.30;99.90
8565;DHT22;4320;51.498;6.556;2024-01-06T06:03:43;6.30;99.90
8565;DHT22;4320;51.498;6.556;2024-01-06T06:06:08;6.40;99.90
8565;DHT22;4320;51.498;6.556;2024-01-06T06:08:34;6.30;99.90
8565;DHT22;4320;51.498;6.556;2024-01-06T06:10:59;6.50;99.90
8565;DHT22;4320;51.498;6.556;2024-01-06T06:13:30;6.30;99.90
8565;DHT22;4320;51.498;6.556;2024-01-06T06:15:56;6.10;99.90
8565;DHT22;4320;51.498;6.556;2024-01-06T06:18:23;6.00;99.90
8565;DHT22;4320;51.498;6.556;2024-01-06T06:20:48;6.30;99.90
8565;DHT22;4320;51.498;6.556;2024-01-06T06:23:14;6.40;99.90
8565;DHT22;4320;51.498;6.556;2024-01-06T06:25:40;6.40;99.90
8565;DHT22;4320;51.498;6.556;2024-01-06T06:28:05;6.60;99.90
8565;DHT22;4320;51.498;6.556;2024-01-06T06:30:32;6.70;99.90
8565;DHT22;4320;51.498;6.556;2024-01-06T06:32:57;6.60;99.90
8565;DHT22;4320;51.498;6.556;2024-01-06T06:35:24;6.60;99.90
8565;DHT22;4320;51.498;6.556;2024-01-06T06:37:49;6.50;99.90
8565;DHT22;4320;51.498;6.556;2024-01-06T06:40:15;6.40;99.90
8565;DHT22;4320;51.498;6.556;2024-01-06T06:42:41;6.20;99.90
8565;DHT22;4320;51.498;6.556;2024-01-06T06:45:07;6.10;99.90
8565;DHT22;4320;51.498;6.556;2024-01-06T06:47:33;6.10;99.90
8565;DHT22;4320;51.498;6.556;2024-01-06T06:49:58;6.00;99.90
8565;DHT22;4320;51.498;6.556;2024-01-06T06:52:24;6.10;99.90
8565;DHT22;4320;51.498;6.556;2024-01-06T06:54:49;6.10;99.90
8565;DHT22;4320;51.498;6.556;2024-01-06T06:57:17;6.30;99.90
8565;DHT22;4320;51.498;6.556;2024-01-06T06:59:43;6.40;99.90
8565;DHT22;4320;51.498;6.556;2024-01-06T07:02:08;6.30;99.90
8565;DHT22;4320;51.498;6.556;2024-01-06T07:04:34;6.20;99.90
8565;DHT22;4320;51.498;6.556;2024-01-06T07:07:00;6.00;99.90
8565;DHT22;4320;51.498;6.556;2024-01-06T07:09:26;6.00;99.90
8565;DHT22;4320;51.498;6.556;2024-01-06T07:11:51;5.90;99.90
8565;DHT22;4320;51.498;6.556;2024-01-06T07:14:17;6.00;99.90
8565;DHT22;4320;51.498;6.556;2024-01-06T07:16:42;6.10;99.90
8565;DHT22;4320;51.498;6.556;2024-01-06T07:19:08;6.10;99.90
8565;DHT22;4320;51.498;6.556;2024-01-06T07:21:34;6.00;99.90
8565;DHT22;4320;51.498;6.556;2024-01-06T07:24:00;5.90;99.90
8565;DHT22;4320;51.498;6.556;2024-01-06T07:26:26;6.00;99.90
8565;DHT22;4320;51.498;6.556;2024-01-06T07:28:52;6.20;99.90
8565;DHT22;4320;51.498;6.556;2024-01-06T07:31:18;5.90;99.90
8565;DHT22;4320;51.498;6.556;2024-01-06T07:33:44;5.80;99.90
8565;DHT22;4320;51.498;6.556;2024-01-06T07:36:09;5.80;99.90
8565;DHT22;4320;51.498;6.556;2024-01-06T07:38:36;5.80;99.90
8565;DHT22;4320;51.498;6.556;2024-01-06T07:41:02;5.80;99.90
8565;DHT22;4320;51.498;6.556;2024-01-06T07:43:30;5.90;99.90
8565;DHT22;4320;51.498;6.556;2024-01-06T07:45:55;6.00;99.90
8565;DHT22;4320;51.498;6.556;2024-01-06T07:48:21;6.00;99.90
8565;DHT22;4320;51.498;6.556;2024-01-06T07:50:47;5.90;99.90
8565;DHT22;4320;51.498;6.556;2024-01-06T07:53:12;5.70;99.90
8565;DHT22;4320;51.498;6.556;2024-01-06T07:55:39;5.70;99.90
8565;DHT22;4320;51.498;6.556;2024-01-06T07:58:05;5.60;99.90
8565;DHT22;4320;51.498;6.556;2024-01-06T08:00:31;5.60;99.90
8565;DHT22;4320;51.498;6.556;2024-01-06T08:02:57;5.50;99.90
8565;DHT22;4320;51.498;6.556;2024-01-06T08:05:22;5.50;99.90
8565;DHT22;4320;51.498;6.556;2024-01-06T08:07:48;5.60;99.90
8565;DHT22;4320;51.498;6.556;2024-01-06T08:10:14;5.80;99.90
8565;DHT22;4320;51.498;6.556;2024-01-06T08:12:40;5.90;99.90
8565;DHT22;4320;51.498;6.556;2024-01-06T08:15:06;6.00;99.90
8565;DHT22;4320;51.498;6.556;2024-01-06T08:17:33;6.10;99.90
8565;DHT22;4320;51.498;6.556;2024-01-06T08:19:58;6.10;99.90
8565;DHT22;4320;51.498;6.556;2024-01-06T08:22:25;6.00;99.90
8565;DHT22;4320;51.498;6.556;2024-01-06T08:24:50;6.00;99.90
8565;DHT22;4320;51.498;6.556;2024-01-06T08:27:16;5.70;99.90
8565;DHT22;4320;51.498;6.556;2024-01-06T08:29:41;5.70;99.90
8565;DHT22;4320;51.498;6.556;2024-01-06T08:32:07;5.70;99.90
8565;DHT22;4320;51.498;6.556;2024-01-06T08:34:33;5.70;99.90
8565;DHT22;4320;51.498;6.556;2024-01-06T08:36:58;5.60;99.90
8565;DHT22;4320;51.498;6.556;2024-01-06T08:39:24;5.40;99.90
8565;DHT22;4320;51.498;6.556;2024-01-06T08:41:50;5.60;99.90
8565;DHT22;4320;51.498;6.556;2024-01-06T08:44:16;5.70;99.90
8565;DHT22;4320;51.498;6.556;2024-01-06T08:46:41;5.80;99.90
8565;DHT22;4320;51.498;6.556;2024-01-06T08:49:07;5.80;99.90
8565;DHT22;4320;51.498;6.556;2024-01-06T08:51:33;5.60;99.90
8565;DHT22;4320;51.498;6.556;2024-01-06T08:53:59;5.50;99.90
8565;DHT22;4320;51.498;6.556;2024-01-06T08:56:25;5.60;99.90
8565;DHT22;4320;51.498;6.556;2024-01-06T08:58:51;5.80;99.90
8565;DHT22;4320;51.498;6.556;2024-01-06T09:01:17;6.00;99.90
8565;DHT22;4320;51.498;6.556;2024-01-06T09:03:42;5.90;99.90
8565;DHT22;4320;51.498;6.556;2024-01-06T09:06:08;5.60;99.90
8565;DHT22;4320;51.498;6.556;2024-01-06T09:08:33;5.40;99.90
8565;DHT22;4320;51.498;6.556;2024-01-06T09:10:59;5.40;99.90
8565;DHT22;4320;51.498;6.556;2024-01-06T09:13:25;5.10;99.90
8565;DHT22;4320;51.498;6.556;2024-01-06T09:15:51;4.90;99.90
8565;DHT22;4320;51.498;6.556;2024-01-06T09:18:17;5.00;99.90
8565;DHT22;4320;51.498;6.556;2024-01-06T09:20:43;5.00;99.90
8565;DHT22;4320;51.498;6.556;2024-01-06T09:23:08;5.10;99.90
8565;DHT22;4320;51.498;6.556;2024-01-06T09:25:35;5.10;99.90
8565;DHT22;4320;51.498;6.556;2024-01-06T09:28:01;5.30;99.90
8565;DHT22;4320;51.498;6.556;2024-01-06T09:30:26;5.20;99.90
8565;DHT22;4320;51.498;6.556;2024-01-06T09:32:52;5.20;99.90
8565;DHT22;4320;51.498;6.556;2024-01-06T09:35:18;5.20;99.90
8565;DHT22;4320;51.498;6.556;2024-01-06T09:37:44;5.20;99.90
8565;DHT22;4320;51.498;6.556;2024-01-06T09:40:12;5.30;99.90
8565;DHT22;4320;51.498;6.556;2024-01-06T09:42:41;5.20;99.90
8565;DHT22;4320;51.498;6.556;2024-01-06T09:45:07;5.30;99.90
8565;DHT22;4320;51.498;6.556;2024-01-06T09:47:34;5.30;99.90
8565;DHT22;4320;51.498;6.556;2024-01-06T09:50:01;5.40;99.90
8565;DHT22;4320;51.498;6.556;2024-01-06T09:52:32;5.40;99.90
8565;DHT22;4320;51.498;6.556;2024-01-06T09:55:00;5.50;99.90
8565;DHT22;4320;51.498;6.556;2024-01-06T09:57:27;5.50;99.90
8565;DHT22;4320;51.498;6.556;2024-01-06T09:59:53;5.50;99.90
8565;DHT22;4320;51.498;6.556;2024-01-06T10:02:20;5.50;99.90
8565;DHT22;4320;51.498;6.556;2024-01-06T10:04:48;5.40;99.90
8565;DHT22;4320;51.498;6.556;2024-01-06T10:07:14;5.30;99.90
8565;DHT22;4320;51.498;6.556;2024-01-06T10:09:42;5.50;99.90
8565;DHT22;4320;51.498;6.556;2024-01-06T10:12:08;5.50;99.90
8565;DHT22;4320;51.498;6.556;2024-01-06T10:14:35;5.30;99.90
8565;DHT22;4320;51.498;6.556;2024-01-06T10:17:01;5.20;99.90
8565;DHT22;4320;51.498;6.556;2024-01-06T10:19:27;5.40;99.90
8565;DHT22;4320;51.498;6.556;2024-01-06T10:21:52;5.60;99.90
8565;DHT22;4320;51.498;6.556;2024-01-06T10:24:18;5.70;99.90
8565;DHT22;4320;51.498;6.556;2024-01-06T10:26:47;5.80;99.90
8565;DHT22;4320;51.498;6.556;2024-01-06T10:29:15;5.60;99.90
8565;DHT22;4320;51.498;6.556;2024-01-06T10:31:41;5.50;99.90
8565;DHT22;4320;51.498;6.556;2024-01-06T10:34:07;5.30;99.90
8565;DHT22;4320;51.498;6.556;2024-01-06T10:36:33;5.50;99.90
8565;DHT22;4320;51.498;6.556;2024-01-06T10:38:59;5.30;99.90
8565;DHT22;4320;51.498;6.556;2024-01-06T10:41:24;5.20;99.90
8565;DHT22;4320;51.498;6.556;2024-01-06T10:43:51;5.20;99.90
8565;DHT22;4320;51.498;6.556;2024-01-06T10:46:18;5.10;99.90
8565;DHT22;4320;51.498;6.556;2024-01-06T10:48:44;5.10;99.90
8565;DHT22;4320;51.498;6.556;2024-01-06T10:51:12;4.90;99.90
8565;DHT22;4320;51.498;6.556;2024-01-06T10:53:40;4.80;99.90
8565;DHT22;4320;51.498;6.556;2024-01-06T10:56:07;4.80;99.90
8565;DHT22;4320;51.498;6.556;2024-01-06T10:58:36;5.10;99.90
8565;DHT22;4320;51.498;6.556;2024-01-06T11:01:08;5.40;99.90
8565;DHT22;4320;51.498;6.556;2024-01-06T11:03:36;5.10;99.90
8565;DHT22;4320;51.498;6.556;2024-01-06T11:06:04;5.10;99.90
8565;DHT22;4320;51.498;6.556;2024-01-06T11:08:30;4.90;99.90
8565;DHT22;4320;51.498;6.556;2024-01-06T11:10:57;4.80;99.90
8565;DHT22;4320;51.498;6.556;2024-01-06T11:13:23;4.80;99.90
8565;DHT22;4320;51.498;6.556;2024-01-06T11:15:51;5.00;99.90
8565;DHT22;4320;51.498;6.556;2024-01-06T11:18:37;4.90;99.90
8565;DHT22;4320;51.498;6.556;2024-01-06T11:21:22;5.00;99.90
8565;DHT22;4320;51.498;6.556;2024-01-06T11:24:16;4.80;99.90
8565;DHT22;4320;51.498;6.556;2024-01-06T11:26:44;4.80;99.90
8565;DHT22;4320;51.498;6.556;2024-01-06T11:29:10;5.10;99.90
8565;DHT22;4320;51.498;6.556;2024-01-06T11:31:37;5.40;99.90
8565;DHT22;4320;51.498;6.556;2024-01-06T11:34:18;5.40;99.90
8565;DHT22;4320;51.498;6.556;2024-01-06T11:36:49;5.40;99.90
8565;DHT22;4320;51.498;6.556;2024-01-06T11:39:37;5.50;99.90
8565;DHT22;4320;51.498;6.556;2024-01-06T11:42:06;5.40;99.90
8565;DHT22;4320;51.498;6.556;2024-01-06T11:44:37;5.40;99.90
8565;DHT22;4320;51.498;6.556;2024-01-06T11:47:04;5.20;99.90
8565;DHT22;4320;51.498;6.556;2024-01-06T11:49:31;5.10;99.90
8565;DHT22;4320;51.498;6.556;2024-01-06T11:51:57;5.00;99.90
8565;DHT22;4320;51.498;6.556;2024-01-06T11:54:23;5.00;99.90
8565;DHT22;4320;51.498;6.556;2024-01-06T11:56:49;4.70;99.90
8565;DHT22;4320;51.498;6.556;2024-01-06T11:59:14;4.80;99.90
8565;DHT22;4320;51.498;6.556;2024-01-06T12:01:40;4.80;99.90
8565;DHT22;4320;51.498;6.556;2024-01-06T12:04:06;4.80;99.90
8565;DHT22;4320;51.498;6.556;2024-01-06T12:06:35;4.80;99.90
8565;DHT22;4320;51.498;6.556;2024-01-06T12:09:08;4.80;99.90
8565;DHT22;4320;51.498;6.556;2024-01-06T12:11:34;4.70;99.90
8565;DHT22;4320;51.498;6.556;2024-01-06T12:14:00;4.90;99.90
8565;DHT22;4320;51.498;6.556;2024-01-06T12:16:26;5.00;99.90
8565;DHT22;4320;51.498;6.556;2024-01-06T12:18:56;5.30;99.90
8565;DHT22;4320;51.498;6.556;2024-01-06T12:21:23;5.20;99.90
8565;DHT22;4320;51.498;6.556;2024-01-06T12:23:49;4.90;99.90
8565;DHT22;4320;51.498;6.556;2024-01-06T12:26:16;4.90;99.90
8565;DHT22;4320;51.498;6.556;2024-01-06T12:28:48;4.80;99.90
8565;DHT22;4320;51.498;6.556;2024-01-06T12:31:14;4.80;99.90
8565;DHT22;4320;51.498;6.556;2024-01-06T12:33:41;4.80;99.90
8565;DHT22;4320;51.498;6.556;2024-01-06T12:36:07;4.90;99.90
8565;DHT22;4320;51.498;6.556;2024-01-06T12:38:37;4.90;99.90
8565;DHT22;4320;51.498;6.556;2024-01-06T12:41:04;4.70;99.90
8565;DHT22;4320;51.498;6.556;2024-01-06T12:43:30;4.50;99.90
8565;DHT22;4320;51.498;6.556;2024-01-06T12:45:56;4.60;99.90
8565;DHT22;4320;51.498;6.556;2024-01-06T12:48:23;4.70;99.90
8565;DHT22;4320;51.498;6.556;2024-01-06T12:50:49;4.40;99.90
8565;DHT22;4320;51.498;6.556;2024-01-06T12:53:15;4.40;99.90
8565;DHT22;4320;51.498;6.556;2024-01-06T12:55:43;4.30;99.90
8565;DHT22;4320;51.498;6.556;2024-01-06T12:58:08;4.40;99.90
8565;DHT22;4320;51.498;6.556;2024-01-06T13:00:34;4.50;99.90
8565;DHT22;4320;51.498;6.556;2024-01-06T13:02:59;4.40;99.90
8565;DHT22;4320;51.498;6.556;2024-01-06T13:05:25;4.40;99.90
8565;DHT22;4320;51.498;6.556;2024-01-06T13:07:51;4.30;99.90
8565;DHT22;4320;51.498;6.556;2024-01-06T13:10:17;4.20;99.90
8565;DHT22;4320;51.498;6.556;2024-01-06T13:12:42;4.20;99.90
8565;DHT22;4320;51.498;6.556;2024-01-06T13:15:08;4.30;99.90
8565;DHT22;4320;51.498;6.556;2024-01-06T13:17:40;4.30;99.90
8565;DHT22;4320;51.498;6.556;2024-01-06T13:20:06;4.50;99.90
8565;DHT22;4320;51.498;6.556;2024-01-06T13:22:33;4.60;99.90
8565;DHT22;4320;51.498;6.556;2024-01-06T13:24:58;4.60;99.90
8565;DHT22;4320;51.498;6.556;2024-01-06T13:27:25;4.50;99.90
8565;DHT22;4320;51.498;6.556;2024-01-06T13:32:39;4.70;99.90
8565;DHT22;4320;51.498;6.556;2024-01-06T13:35:05;4.80;99.90
8565;DHT22;4320;51.498;6.556;2024-01-06T13:37:34;5.00;99.90
8565;DHT22;4320;51.498;6.556;2024-01-06T13:39:59;5.20;99.90
8565;DHT22;4320;51.498;6.556;2024-01-06T13:42:25;5.20;99.90
8565;DHT22;4320;51.498;6.556;2024-01-06T13:44:51;4.90;99.90
8565;DHT22;4320;51.498;6.556;2024-01-06T13:47:16;4.80;99.90
8565;DHT22;4320;51.498;6.556;2024-01-06T13:49:42;4.80;99.90
8565;DHT22;4320;51.498;6.556;2024-01-06T13:52:07;4.90;99.90
8565;DHT22;4320;51.498;6.556;2024-01-06T13:54:36;4.90;99.90
8565;DHT22;4320;51.498;6.556;2024-01-06T13:57:02;5.10;99.90
8565;DHT22;4320;51.498;6.556;2024-01-06T13:59:28;5.20;99.90
8565;DHT22;4320;51.498;6.556;2024-01-06T14:01:54;5.10;99.90
8565;DHT22;4320;51.498;6.556;2024-01-06T14:04:19;5.20;99.90
8565;DHT22;4320;51.498;6.556;2024-01-06T14:06:45;5.10;99.90
8565;DHT22;4320;51.498;6.556;2024-01-06T14:09:13;5.10;99.90
8565;DHT22;4320;51.498;6.556;2024-01-06T14:11:39;5.00;99.90
8565;DHT22;4320;51.498;6.556;2024-01-06T14:14:04;4.90;99.90
8565;DHT22;4320;51.498;6.556;2024-01-06T14:16:30;4.90;99.90
8565;DHT22;4320;51.498;6.556;2024-01-06T14:18:56;4.90;99.90
8565;DHT22;4320;51.498;6.556;2024-01-06T14:21:22;4.70;99.90
8565;DHT22;4320;51.498;6.556;2024-01-06T14:23:48;4.60;99.90
8565;DHT22;4320;51.498;6.556;2024-01-06T14:26:17;4.50;99.90
8565;DHT22;4320;51.498;6.556;2024-01-06T14:28:46;4.50;99.90
8565;DHT22;4320;51.498;6.556;2024-01-06T14:31:11;4.70;99.90
8565;DHT22;4320;51.498;6.556;2024-01-06T14:33:37;4.70;99.90
8565;DHT22;4320;51.498;6.556;2024-01-06T14:36:03;4.60;99.90
8565;DHT22;4320;51.498;6.556;2024-01-06T14:38:29;4.60;99.90
8565;DHT22;4320;51.498;6.556;2024-01-06T14:40:54;4.70;99.90
8565;DHT22;4320;51.498;6.556;2024-01-06T14:43:20;4.80;99.90
8565;DHT22;4320;51.498;6.556;2024-01-06T14:45:46;5.00;99.90
8565;DHT22;4320;51.498;6.556;2024-01-06T14:48:12;5.10;99.90
8565;DHT22;4320;51.498;6.556;2024-01-06T14:50:38;5.20;99.90
8565;DHT22;4320;51.498;6.556;2024-01-06T14:53:04;5.30;99.90
8565;DHT22;4320;51.498;6.556;2024-01-06T14:55:29;5.20;99.90
8565;DHT22;4320;51.498;6.556;2024-01-06T14:57:55;5.10;99.90
8565;DHT22;4320;51.498;6.556;2024-01-06T15:00:21;4.80;99.90
8565;DHT22;4320;51.498;6.556;2024-01-06T15:02:46;4.60;99.90
8565;DHT22;4320;51.498;6.556;2024-01-06T15:05:13;4.60;99.90
8565;DHT22;4320;51.498;6.556;2024-01-06T15:07:38;4.50;99.90
8565;DHT22;4320;51.498;6.556;2024-01-06T15:10:04;4.60;99.90
8565;DHT22;4320;51.498;6.556;2024-01-06T15:12:31;4.60;99.90
8565;DHT22;4320;51.498;6.556;2024-01-06T15:14:56;4.80;99.90
8565;DHT22;4320;51.498;6.556;2024-01-06T15:17:24;4.80;99.90
8565;DHT22;4320;51.498;6.556;2024-01-06T15:19:49;4.70;99.90
8565;DHT22;4320;51.498;6.556;2024-01-06T15:22:15;4.40;99.90
8565;DHT22;4320;51.498;6.556;2024-01-06T15:24:42;4.40;99.90
8565;DHT22;4320;51.498;6.556;2024-01-06T15:27:13;4.60;99.90
8565;DHT22;4320;51.498;6.556;2024-01-06T15:29:39;4.40;99.90
8565;DHT22;4320;51.498;6.556;2024-01-06T15:32:06;4.20;99.90
8565;DHT22;4320;51.498;6.556;2024-01-06T15:34:33;4.20;99.90
8565;DHT22;4320;51.498;6.556;2024-01-06T15:36:58;4.30;99.90
8565;DHT22;4320;51.498;6.556;2024-01-06T15:39:24;4.20;99.90
8565;DHT22;4320;51.498;6.556;2024-01-06T15:41:50;4.20;99.90
8565;DHT22;4320;51.498;6.556;2024-01-06T15:44:17;4.30;99.90
8565;DHT22;4320;51.498;6.556;2024-01-06T15:46:42;4.40;99.90
8565;DHT22;4320;51.498;6.556;2024-01-06T15:49:08;4.40;99.90
8565;DHT22;4320;51.498;6.556;2024-01-06T15:51:34;4.30;99.90
8565;DHT22;4320;51.498;6.556;2024-01-06T15:54:00;4.40;99.90
8565;DHT22;4320;51.498;6.556;2024-01-06T15:56:26;4.30;99.90
8565;DHT22;4320;51.498;6.556;2024-01-06T15:58:52;4.30;99.90
8565;DHT22;4320;51.498;6.556;2024-01-06T16:01:20;4.40;99.90
8565;DHT22;4320;51.498;6.556;2024-01-06T16:03:45;4.40;99.90
8565;DHT22;4320;51.498;6.556;2024-01-06T16:06:11;4.30;99.90
8565;DHT22;4320;51.498;6.556;2024-01-06T16:08:37;4.20;99.90
8565;DHT22;4320;51.498;6.556;2024-01-06T16:11:03;4.10;99.90
8565;DHT22;4320;51.498;6.556;2024-01-06T16:13:28;4.40;99.90